Time;durP1;ratioP1;P1;durP2;ratioP2;P2;SDS_P1;SDS_P2;PMS_P1;PMS_P2;Temp;Humidity;BMP_temperature;BMP_pressure;BME280_temperature;BME280_humidity;BME280_pressure;Samples;Min_cycle;Max_cycle;Signal;HPM_P1;HPM_P2
2021/08/14 00:01:59;;;;;;;;;;;;;;;22.97;27.49;98590.38;5084531;28;1150;-84
2021/08/14 00:04:24;;;;;;;;;;;;;;;23.02;27.36;98589.84;5083956;28;864;-85
2021/08/14 00:06:50;;;;;;;;;;;;;;;22.99;27.07;98599.25;5084007;28;654;-85
2021/08/14 00:09:15;;;;;;;;;;;;;;;22.82;27.60;98602.00;5084225;28;721;-84
2021/08/14 00:11:41;;;;;;;;;;;;;;;23.03;27.12;98599.97;5051213;28;938;-85
2021/08/14 00:14:07;;;;;;;;;;;;;;;22.89;27.34;98601.06;5082929;28;978;-85
2021/08/14 00:16:32;;;;;;;;;;;;;;;22.85;27.30;98600.34;5083731;28;988;-85
2021/08/14 00:18:57;;;;;;;;;;;;;;;22.98;27.11;98587.09;5083734;28;1894;-85
2021/08/14 00:21:23;;;;;;;;;;;;;;;22.71;27.58;98594.97;5084162;28;725;-85
2021/08/14 00:23:48;;;;;;;;;;;;;;;23.03;27.02;98588.63;5084498;28;1080;-85
2021/08/14 00:26:17;;;;;;;;;;;;;;;22.97;27.10;98598.91;5051641;28;1478;-85
2021/08/14 00:28:42;;;;;;;;;;;;;;;23.08;27.19;98602.28;5084455;28;913;-84
2021/08/14 00:31:07;;;;;;;;;;;;;;;22.88;27.29;98603.13;5084237;28;682;-85
2021/08/14 00:33:33;;;;;;;;;;;;;;;22.98;27.38;98603.31;5084089;28;971;-85
2021/08/14 00:35:58;;;;;;;;;;;;;;;22.93;27.27;98598.16;5084460;28;1190;-85
2021/08/14 00:38:24;;;;;;;;;;;;;;;23.08;26.78;98596.59;5084037;28;1902;-85
2021/08/14 00:40:49;;;;;;;;;;;;;;;22.88;27.18;98605.97;5101077;28;1121;-85
2021/08/14 00:43:15;;;;;;;;;;;;;;;22.97;27.08;98601.72;5067831;28;970;-84
2021/08/14 00:45:41;;;;;;;;;;;;;;;23.08;26.92;98596.59;5084169;28;578;-85
2021/08/14 00:48:09;;;;;;;;;;;;;;;22.97;27.19;98601.72;5083790;28;987;-85
2021/08/14 00:50:35;;;;;;;;;;;;;;;23.08;26.90;98607.97;5083682;28;906;-85
2021/08/14 00:53:01;;;;;;;;;;;;;;;22.98;27.10;98615.47;5083659;28;986;-85
2021/08/14 00:55:28;;;;;;;;;;;;;;;22.99;27.25;98610.59;5066997;28;1291;-85
2021/08/14 00:57:53;;;;;;;;;;;;;;;22.93;27.30;98610.31;5083223;28;1886;-85
2021/08/14 01:00:18;;;;;;;;;;;;;;;22.92;27.38;98602.25;5083546;28;840;-85
2021/08/14 01:02:44;;;;;;;;;;;;;;;22.84;27.39;98593.84;5083161;28;888;-85
2021/08/14 01:05:10;;;;;;;;;;;;;;;22.79;27.48;98596.41;5067128;28;1289;-85
2021/08/14 01:07:36;;;;;;;;;;;;;;;22.95;27.37;98590.00;5067049;28;982;-84
2021/08/14 01:10:01;;;;;;;;;;;;;;;22.96;27.38;98588.78;5083443;28;645;-85
2021/08/14 01:12:27;;;;;;;;;;;;;;;22.95;27.35;98585.16;5083167;28;762;-85
2021/08/14 01:14:52;;;;;;;;;;;;;;;22.80;27.43;98581.00;5067069;28;1228;-85
2021/08/14 01:17:18;;;;;;;;;;;;;;;22.98;27.25;98583.47;5066487;28;1982;-85
2021/08/14 01:19:43;;;;;;;;;;;;;;;22.78;27.68;98567.25;5083536;28;895;-85
2021/08/14 01:22:09;;;;;;;;;;;;;;;23.01;27.41;98579.75;5084017;28;1278;-85
2021/08/14 01:24:35;;;;;;;;;;;;;;;22.90;27.54;98573.50;5050766;28;1150;-85
2021/08/14 01:27:00;;;;;;;;;;;;;;;22.65;27.55;98577.69;5083459;28;1224;-85
2021/08/14 01:29:26;;;;;;;;;;;;;;;23.09;27.13;98576.28;5066705;28;734;-84
2021/08/14 01:31:51;;;;;;;;;;;;;;;22.86;27.80;98568.69;5083882;28;890;-84
2021/08/14 01:34:18;;;;;;;;;;;;;;;22.81;27.77;98566.38;5067097;28;1299;-84
2021/08/14 01:36:45;;;;;;;;;;;;;;;22.88;27.46;98565.44;5082291;28;947;-84
2021/08/14 01:39:12;;;;;;;;;;;;;;;22.94;27.33;98568.53;5083016;28;1906;-85
2021/08/14 01:41:38;;;;;;;;;;;;;;;22.88;27.74;98571.13;5083329;28;1171;-85
2021/08/14 01:44:04;;;;;;;;;;;;;;;22.99;27.35;98565.19;5083123;28;626;-85
2021/08/14 01:46:31;;;;;;;;;;;;;;;22.99;27.54;98559.50;5083097;28;570;-85
2021/08/14 01:48:56;;;;;;;;;;;;;;;22.82;27.54;98562.28;5083292;28;646;-86
2021/08/14 01:51:31;;;;;;;;;;;;;;;23.05;27.34;98569.09;5065831;28;904;-85
2021/08/14 01:53:57;;;;;;;;;;;;;;;22.80;27.53;98564.78;5083182;28;922;-85
2021/08/14 01:56:22;;;;;;;;;;;;;;;22.86;27.62;98557.34;5083322;28;977;-84
2021/08/14 01:58:48;;;;;;;;;;;;;;;22.80;27.44;98570.47;5082402;28;1944;-84
2021/08/14 02:01:13;;;;;;;;;;;;;;;22.89;27.46;98561.34;5083333;28;587;-85
2021/08/14 02:03:39;;;;;;;;;;;;;;;22.91;27.41;98563.78;5100104;28;1200;-85
2021/08/14 02:06:06;;;;;;;;;;;;;;;23.08;27.39;98568.22;5068049;28;887;-85
2021/08/14 02:08:32;;;;;;;;;;;;;;;23.05;27.40;98557.75;5069897;28;1296;-83
2021/08/14 02:10:57;;;;;;;;;;;;;;;23.19;27.02;98562.28;5053520;28;1354;-85
2021/08/14 02:13:23;;;;;;;;;;;;;;;22.90;27.28;98553.63;5069617;28;1165;-84
2021/08/14 02:15:48;;;;;;;;;;;;;;;22.84;27.68;98565.47;5069795;28;813;-84
2021/08/14 02:18:13;;;;;;;;;;;;;;;22.61;28.05;98557.09;5070020;28;1914;-85
2021/08/14 02:20:39;;;;;;;;;;;;;;;22.78;27.71;98560.78;5070499;28;943;-85
2021/08/14 02:23:04;;;;;;;;;;;;;;;22.86;27.54;98546.00;5069453;28;1154;-85
2021/08/14 02:25:30;;;;;;;;;;;;;;;22.90;27.45;98551.63;5070009;28;928;-85
2021/08/14 02:27:55;;;;;;;;;;;;;;;22.85;27.43;98550.06;5086555;28;1179;-85
2021/08/14 02:30:21;;;;;;;;;;;;;;;22.86;27.39;98546.00;5070007;28;1124;-85
2021/08/14 02:32:47;;;;;;;;;;;;;;;22.88;27.72;98543.53;5070627;28;847;-85
2021/08/14 02:35:13;;;;;;;;;;;;;;;22.84;27.62;98542.78;5085808;28;1152;-85
2021/08/14 02:37:39;;;;;;;;;;;;;;;22.81;27.54;98549.34;5086153;28;1906;-86
2021/08/14 02:40:05;;;;;;;;;;;;;;;22.85;27.67;98547.25;5086119;28;1216;-85
2021/08/14 02:42:31;;;;;;;;;;;;;;;22.86;27.63;98550.88;5086510;28;586;-85
2021/08/14 02:44:57;;;;;;;;;;;;;;;22.93;27.38;98545.03;5085708;28;689;-85
2021/08/14 02:47:22;;;;;;;;;;;;;;;22.86;27.45;98546.00;5053147;28;1320;-86
2021/08/14 02:49:48;;;;;;;;;;;;;;;22.81;27.63;98537.22;5085757;28;1163;-84
2021/08/14 02:52:13;;;;;;;;;;;;;;;22.93;27.34;98539.38;5103254;28;1274;-85
2021/08/14 02:54:39;;;;;;;;;;;;;;;22.84;27.39;98548.44;5086359;28;998;-85
2021/08/14 02:57:04;;;;;;;;;;;;;;;22.82;27.28;98542.44;5068641;28;1961;-84
2021/08/14 02:59:30;;;;;;;;;;;;;;;23.02;27.20;98547.28;5085002;28;1246;-83
2021/08/14 03:01:55;;;;;;;;;;;;;;;22.93;27.36;98545.03;5069969;28;607;-85
2021/08/14 03:04:21;;;;;;;;;;;;;;;22.87;27.60;98549.63;5067854;28;1172;-83
2021/08/14 03:06:46;;;;;;;;;;;;;;;22.85;27.35;98544.41;5084560;28;766;-85
2021/08/14 03:09:11;;;;;;;;;;;;;;;22.83;27.81;98540.38;5066739;28;1137;-83
2021/08/14 03:11:37;;;;;;;;;;;;;;;22.96;27.28;98537.72;5082960;28;1164;-83
2021/08/14 03:14:02;;;;;;;;;;;;;;;22.90;27.68;98545.94;5079559;28;880;-83
2021/08/14 03:16:28;;;;;;;;;;;;;;;22.82;27.39;98545.28;5081078;28;847;-81
2021/08/14 03:18:53;;;;;;;;;;;;;;;22.57;27.94;98545.03;5081980;28;1898;-83
2021/08/14 03:21:19;;;;;;;;;;;;;;;22.90;27.36;98551.63;5082270;28;768;-82
2021/08/14 03:23:44;;;;;;;;;;;;;;;22.88;27.35;98549.22;5081313;28;919;-82
2021/08/14 03:26:10;;;;;;;;;;;;;;;22.93;27.51;98549.94;5082198;28;884;-83
2021/08/14 03:28:35;;;;;;;;;;;;;;;22.73;27.40;98550.75;5081316;28;873;-81
2021/08/14 03:31:01;;;;;;;;;;;;;;;22.76;27.85;98547.03;5067097;28;643;-85
2021/08/14 03:33:26;;;;;;;;;;;;;;;22.84;27.30;98554.13;5083928;28;566;-85
2021/08/14 03:35:52;;;;;;;;;;;;;;;22.80;27.82;98552.63;5068559;28;1130;-85
2021/08/14 03:38:17;;;;;;;;;;;;;;;22.82;27.69;98558.66;5084726;28;1879;-85
2021/08/14 03:40:43;;;;;;;;;;;;;;;22.74;27.90;98555.19;5084258;28;887;-85
2021/08/14 03:43:09;;;;;;;;;;;;;;;22.78;27.58;98564.41;5084345;28;836;-85
2021/08/14 03:45:35;;;;;;;;;;;;;;;22.84;27.55;98562.63;5084919;28;1478;-85
2021/08/14 03:48:01;;;;;;;;;;;;;;;22.98;27.58;98557.91;5068677;28;1158;-85
2021/08/14 03:50:27;;;;;;;;;;;;;;;22.76;27.78;98558.38;5069026;28;614;-84
2021/08/14 03:52:53;;;;;;;;;;;;;;;22.76;27.75;98563.25;5068706;28;976;-85
2021/08/14 03:55:19;;;;;;;;;;;;;;;22.76;28.03;98569.72;5084291;28;973;-85
2021/08/14 03:57:45;;;;;;;;;;;;;;;22.85;27.82;98561.44;5084400;28;1955;-85
2021/08/14 04:00:10;;;;;;;;;;;;;;;22.65;28.08;98557.81;5085137;28;642;-85
2021/08/14 04:02:36;;;;;;;;;;;;;;;22.77;27.74;98559.97;5068628;28;706;-85
2021/08/14 04:05:01;;;;;;;;;;;;;;;22.91;27.71;98564.56;5084133;28;650;-85
2021/08/14 04:07:27;;;;;;;;;;;;;;;22.81;27.86;98566.38;5084413;28;903;-86
2021/08/14 04:09:52;;;;;;;;;;;;;;;23.05;27.12;98563.41;5067523;28;1146;-84
2021/08/14 04:12:17;;;;;;;;;;;;;;;22.87;27.55;98570.28;5082615;28;900;-83
2021/08/14 04:14:43;;;;;;;;;;;;;;;22.69;27.83;98569.91;5082174;28;664;-84
2021/08/14 04:17:08;;;;;;;;;;;;;;;22.95;27.49;98576.66;5082987;28;1979;-84
2021/08/14 04:19:34;;;;;;;;;;;;;;;22.86;27.61;98567.91;5083380;28;679;-85
2021/08/14 04:22:00;;;;;;;;;;;;;;;22.70;27.85;98568.66;5069066;28;1233;-86
2021/08/14 04:24:26;;;;;;;;;;;;;;;22.79;27.51;98571.66;5085857;28;1320;-86
2021/08/14 04:26:51;;;;;;;;;;;;;;;23.00;27.27;98569.63;5068555;28;1262;-86
2021/08/14 04:29:17;;;;;;;;;;;;;;;22.91;27.52;98570.25;5068724;28;1192;-86
2021/08/14 04:31:42;;;;;;;;;;;;;;;22.94;27.37;98574.22;5085597;28;891;-85
2021/08/14 04:34:08;;;;;;;;;;;;;;;22.88;27.54;98571.91;5086166;28;829;-86
2021/08/14 04:36:33;;;;;;;;;;;;;;;23.03;27.41;98571.59;5085006;28;1266;-86
2021/08/14 04:38:59;;;;;;;;;;;;;;;22.89;27.88;98575.53;5069491;28;1962;-85
2021/08/14 04:41:24;;;;;;;;;;;;;;;22.95;27.65;98578.66;5085155;28;859;-86
2021/08/14 04:43:50;;;;;;;;;;;;;;;22.90;27.66;98573.50;5085921;28;916;-86
2021/08/14 04:46:15;;;;;;;;;;;;;;;22.65;28.06;98580.53;5085221;28;776;-86
2021/08/14 04:48:40;;;;;;;;;;;;;;;23.00;27.70;98583.81;5068810;28;682;-86
2021/08/14 04:51:06;;;;;;;;;;;;;;;22.78;27.85;98575.75;5068324;28;1308;-86
2021/08/14 04:53:31;;;;;;;;;;;;;;;22.71;28.41;98580.81;5085066;28;836;-86
2021/08/14 04:55:57;;;;;;;;;;;;;;;22.73;28.25;98587.63;5069265;28;878;-87
2021/08/14 04:58:22;;;;;;;;;;;;;;;22.87;28.00;98581.63;5085928;28;1906;-86
2021/08/14 05:00:48;;;;;;;;;;;;;;;22.77;28.10;98588.34;5085360;28;817;-86
2021/08/14 05:03:15;;;;;;;;;;;;;;;22.79;28.09;98585.84;5086196;28;1255;-86
2021/08/14 05:05:42;;;;;;;;;;;;;;;22.81;28.08;98574.88;5101976;28;1203;-86
2021/08/14 05:08:07;;;;;;;;;;;;;;;22.92;28.07;98574.66;5052395;28;1345;-86
2021/08/14 05:10:33;;;;;;;;;;;;;;;22.87;28.18;98587.31;5102324;28;1222;-86
2021/08/14 05:12:58;;;;;;;;;;;;;;;23.09;27.44;98581.16;5085262;28;607;-86
2021/08/14 05:15:24;;;;;;;;;;;;;;;22.87;28.20;98580.84;5069386;28;1137;-85
2021/08/14 05:17:49;;;;;;;;;;;;;;;22.81;27.96;98577.72;5085472;28;1890;-86
2021/08/14 05:20:17;;;;;;;;;;;;;;;22.84;28.25;98588.19;5084893;28;898;-86
2021/08/14 05:22:42;;;;;;;;;;;;;;;22.98;27.77;98587.09;5068918;28;874;-87
2021/08/14 05:25:08;;;;;;;;;;;;;;;22.92;28.04;98593.75;5086082;28;983;-86
2021/08/14 05:27:37;;;;;;;;;;;;;;;22.87;28.05;98595.81;5069480;28;1171;-86
2021/08/14 05:30:02;;;;;;;;;;;;;;;22.90;27.87;98599.88;5068790;28;1144;-86
2021/08/14 05:32:28;;;;;;;;;;;;;;;23.00;27.68;98592.31;5052000;28;1163;-86
2021/08/14 05:34:53;;;;;;;;;;;;;;;22.84;28.07;98591.00;5085156;28;1058;-86
2021/08/14 05:37:19;;;;;;;;;;;;;;;22.93;28.15;98592.50;5085436;28;1875;-87
2021/08/14 05:39:44;;;;;;;;;;;;;;;22.83;28.26;98597.94;5085899;28;1284;-86
2021/08/14 05:42:10;;;;;;;;;;;;;;;22.93;28.26;98595.34;5072248;28;781;-87
2021/08/14 05:44:35;;;;;;;;;;;;;;;23.02;27.73;98593.50;5073701;28;556;-86
2021/08/14 05:47:01;;;;;;;;;;;;;;;22.99;28.01;98593.56;5089277;28;819;-86
2021/08/14 05:49:26;;;;;;;;;;;;;;;22.96;28.18;98594.47;5071875;28;1188;-86
2021/08/14 05:51:52;;;;;;;;;;;;;;;22.81;28.28;98599.63;5088149;28;1094;-87
2021/08/14 05:54:29;;;;;;;;;;;;;;;22.81;28.48;98594.75;5088742;28;918;-86
2021/08/14 05:56:55;;;;;;;;;;;;;;;22.75;28.57;98596.50;5088355;28;1154;-86
2021/08/14 05:59:20;;;;;;;;;;;;;;;22.75;28.51;98590.03;5073279;28;1887;-86
2021/08/14 06:01:46;;;;;;;;;;;;;;;22.71;28.57;98594.97;5071663;28;1226;-86
2021/08/14 06:04:11;;;;;;;;;;;;;;;22.84;28.71;98596.69;5089217;28;915;-87
2021/08/14 06:06:40;;;;;;;;;;;;;;;23.05;28.09;98591.78;5088516;28;912;-86
2021/08/14 06:09:06;;;;;;;;;;;;;;;22.88;28.59;98594.59;5105488;28;962;-86
2021/08/14 06:11:35;;;;;;;;;;;;;;;22.90;28.31;98599.03;5088296;28;1001;-86
2021/08/14 06:14:00;;;;;;;;;;;;;;;23.02;28.45;98592.69;5072222;28;1167;-87
2021/08/14 06:16:26;;;;;;;;;;;;;;;22.92;28.39;98596.56;5071952;28;1209;-86
2021/08/14 06:18:51;;;;;;;;;;;;;;;23.09;28.25;98598.19;5088049;28;1909;-86
2021/08/14 06:21:17;;;;;;;;;;;;;;;23.13;27.93;98593.25;5071115;28;879;-87
2021/08/14 06:23:42;;;;;;;;;;;;;;;22.89;28.44;98589.72;5089422;28;956;-86
2021/08/14 06:26:09;;;;;;;;;;;;;;;22.83;28.50;98595.09;5055062;28;1303;-86
2021/08/14 06:28:34;;;;;;;;;;;;;;;23.03;28.26;98585.78;5071993;28;1293;-86
2021/08/14 06:31:00;;;;;;;;;;;;;;;22.96;28.68;98588.78;5088231;28;827;-85
2021/08/14 06:33:26;;;;;;;;;;;;;;;23.03;28.36;98588.63;5088405;28;885;-87
2021/08/14 06:35:51;;;;;;;;;;;;;;;23.05;28.21;98581.28;5087483;28;1239;-86
2021/08/14 06:38:17;;;;;;;;;;;;;;;22.97;28.36;98590.38;5088170;28;1984;-86
2021/08/14 06:40:42;;;;;;;;;;;;;;;22.87;28.52;98586.50;5071424;28;1134;-86
2021/08/14 06:43:08;;;;;;;;;;;;;;;22.82;28.88;98582.16;5071711;28;1250;-86
2021/08/14 06:45:45;;;;;;;;;;;;;;;22.79;28.98;98583.03;5071140;28;1161;-86
2021/08/14 06:48:11;;;;;;;;;;;;;;;22.76;29.08;98586.75;5087920;28;973;-87
2021/08/14 06:50:36;;;;;;;;;;;;;;;22.97;28.56;98593.22;5070003;28;1097;-86
2021/08/14 06:53:02;;;;;;;;;;;;;;;23.02;28.59;98599.16;5071614;28;1190;-86
2021/08/14 06:55:27;;;;;;;;;;;;;;;22.93;28.62;98595.34;5087554;28;857;-86
2021/08/14 06:57:53;;;;;;;;;;;;;;;22.98;28.51;98594.81;5070576;28;1898;-86
2021/08/14 07:00:18;;;;;;;;;;;;;;;23.14;28.39;98603.34;5087930;28;737;-87
2021/08/14 07:02:44;;;;;;;;;;;;;;;23.05;28.35;98597.47;5086989;28;1121;-86
2021/08/14 07:05:10;;;;;;;;;;;;;;;22.95;28.67;98590.84;5087109;28;826;-86
2021/08/14 07:07:35;;;;;;;;;;;;;;;22.95;28.82;98598.53;5087898;28;1084;-86
2021/08/14 07:10:02;;;;;;;;;;;;;;;22.99;28.61;98596.41;5088065;28;643;-84
2021/08/14 07:12:27;;;;;;;;;;;;;;;22.94;28.70;98596.94;5087179;28;805;-85
2021/08/14 07:14:55;;;;;;;;;;;;;;;22.97;28.65;98601.72;5087614;28;860;-85
2021/08/14 07:17:21;;;;;;;;;;;;;;;23.00;28.64;98606.50;5086964;28;1911;-86
2021/08/14 07:19:47;;;;;;;;;;;;;;;23.08;28.56;98605.91;5087286;28;1020;-84
2021/08/14 07:22:13;;;;;;;;;;;;;;;22.95;28.61;98598.53;5087042;28;985;-86
2021/08/14 07:24:38;;;;;;;;;;;;;;;22.88;28.87;98610.84;5087655;28;881;-86
2021/08/14 07:27:04;;;;;;;;;;;;;;;22.97;28.63;98607.41;5087363;28;1275;-86
2021/08/14 07:29:29;;;;;;;;;;;;;;;22.95;28.42;98604.19;5087789;28;860;-86
2021/08/14 07:31:55;;;;;;;;;;;;;;;23.09;28.38;98610.34;5070603;28;1161;-86
2021/08/14 07:34:20;;;;;;;;;;;;;;;23.14;28.24;98609.03;5070827;28;1279;-87
2021/08/14 07:36:46;;;;;;;;;;;;;;;23.07;28.63;98600.69;5070422;28;1234;-86
2021/08/14 07:39:44;;;;;;;;;;;;;;;22.97;28.60;98607.41;5071687;28;812;-86
2021/08/14 07:42:09;;;;;;;;;;;;;;;22.74;28.93;98600.59;5086865;28;1007;-86
2021/08/14 07:44:35;;;;;;;;;;;;;;;22.97;28.44;98605.38;5087096;28;1145;-86
2021/08/14 07:47:01;;;;;;;;;;;;;;;22.85;28.79;98592.63;5069673;28;1324;-86
2021/08/14 07:49:26;;;;;;;;;;;;;;;23.22;28.14;98604.00;5053776;28;1260;-86
2021/08/14 07:51:58;;;;;;;;;;;;;;;22.79;29.05;98602.88;5086061;28;849;-86
2021/08/14 07:54:23;;;;;;;;;;;;;;;22.96;28.76;98600.13;5069976;28;1251;-86
2021/08/14 07:56:49;;;;;;;;;;;;;;;22.93;28.83;98601.00;5069929;28;1058;-87
2021/08/14 07:59:14;;;;;;;;;;;;;;;23.06;28.45;98599.09;5086637;28;2026;-86
2021/08/14 08:01:40;;;;;;;;;;;;;;;22.99;28.83;98593.56;5086203;28;832;-86
2021/08/14 08:04:05;;;;;;;;;;;;;;;23.06;28.48;98593.41;5086070;28;1283;-86
2021/08/14 08:06:31;;;;;;;;;;;;;;;23.19;28.56;98596.34;5069225;28;1110;-86
2021/08/14 08:08:56;;;;;;;;;;;;;;;23.07;28.71;98600.69;5070343;28;722;-86
2021/08/14 08:11:22;;;;;;;;;;;;;;;23.09;28.56;98601.84;5069331;28;1177;-86
2021/08/14 08:13:47;;;;;;;;;;;;;;;23.04;28.51;98604.41;5069822;28;1051;-86
2021/08/14 08:16:12;;;;;;;;;;;;;;;23.04;28.87;98601.56;5085132;28;904;-86
2021/08/14 08:18:38;;;;;;;;;;;;;;;22.96;29.04;98600.13;5053184;28;1882;-86
2021/08/14 08:21:04;;;;;;;;;;;;;;;22.94;29.12;98602.59;5085398;28;792;-86
2021/08/14 08:23:30;;;;;;;;;;;;;;;23.05;28.71;98592.63;5086124;28;864;-86
2021/08/14 08:25:55;;;;;;;;;;;;;;;23.19;28.73;98593.50;5068659;28;1279;-86
2021/08/14 08:28:21;;;;;;;;;;;;;;;23.06;28.67;98593.41;5086253;28;622;-86
2021/08/14 08:30:47;;;;;;;;;;;;;;;23.00;28.96;98600.84;5085395;28;952;-86
2021/08/14 08:33:12;;;;;;;;;;;;;;;23.00;28.83;98595.16;5085608;28;979;-86
2021/08/14 08:35:38;;;;;;;;;;;;;;;23.00;28.93;98595.16;5068806;28;1240;-86
2021/08/14 08:38:03;;;;;;;;;;;;;;;23.05;29.03;98592.63;5068955;28;1902;-87
2021/08/14 08:40:30;;;;;;;;;;;;;;;23.08;28.67;98593.78;5102564;28;1193;-86
2021/08/14 08:42:55;;;;;;;;;;;;;;;23.03;29.02;98589.41;5086070;28;999;-86
2021/08/14 08:45:21;;;;;;;;;;;;;;;23.01;28.95;98593.94;5068359;28;1152;-86
2021/08/14 08:47:46;;;;;;;;;;;;;;;23.12;28.91;98591.66;5051931;28;1197;-86
2021/08/14 08:50:12;;;;;;;;;;;;;;;23.19;28.99;98590.69;5085576;28;850;-86
2021/08/14 08:52:38;;;;;;;;;;;;;;;22.91;29.18;98587.28;5085635;28;661;-86
2021/08/14 08:55:05;;;;;;;;;;;;;;;23.01;29.19;98586.22;5085235;28;966;-86
2021/08/14 08:57:30;;;;;;;;;;;;;;;22.97;29.16;98579.03;5068825;28;1887;-86
2021/08/14 08:59:57;;;;;;;;;;;;;;;22.90;29.37;98568.66;5085096;28;1013;-86
2021/08/14 09:02:27;;;;;;;;;;;;;;;23.02;28.86;98572.81;5084855;28;964;-86
2021/08/14 09:05:11;;;;;;;;;;;;;;;23.12;28.99;98574.63;5084895;28;931;-86
2021/08/14 09:07:36;;;;;;;;;;;;;;;23.09;29.33;98575.50;5069017;28;1131;-86
2021/08/14 09:10:02;;;;;;;;;;;;;;;23.00;29.10;98583.81;5068497;28;698;-86
2021/08/14 09:12:28;;;;;;;;;;;;;;;23.07;29.05;98586.50;5085051;28;909;-86
2021/08/14 09:14:54;;;;;;;;;;;;;;;22.95;29.43;98570.13;5071354;28;1271;-86
2021/08/14 09:17:19;;;;;;;;;;;;;;;23.05;29.31;98569.09;5072176;28;1906;-86
2021/08/14 09:19:45;;;;;;;;;;;;;;;22.99;29.12;98579.38;5089602;28;1323;-86
2021/08/14 09:22:24;;;;;;;;;;;;;;;23.01;28.97;98574.88;5072684;28;646;-86
2021/08/14 09:24:50;;;;;;;;;;;;;;;23.08;29.09;98574.69;5088958;28;1005;-86
2021/08/14 09:27:15;;;;;;;;;;;;;;;22.96;29.49;98571.75;5073115;28;1133;-85
2021/08/14 09:29:46;;;;;;;;;;;;;;;22.88;29.54;98576.78;5088325;28;1343;-86
2021/08/14 09:32:12;;;;;;;;;;;;;;;22.98;29.48;98575.75;5071861;28;1214;-86
2021/08/14 09:34:49;;;;;;;;;;;;;;;23.13;29.09;98576.22;5088650;28;867;-86
2021/08/14 09:37:15;;;;;;;;;;;;;;;23.13;29.25;98570.53;5088953;28;1954;-86
2021/08/14 09:39:50;;;;;;;;;;;;;;;23.07;29.38;98572.31;5088825;28;1301;-86
2021/08/14 09:42:16;;;;;;;;;;;;;;;23.13;28.90;98564.84;5072496;28;967;-86
2021/08/14 09:44:42;;;;;;;;;;;;;;;23.12;29.05;98551.91;5088477;28;874;-87
2021/08/14 09:47:11;;;;;;;;;;;;;;;23.17;29.02;98559.91;5089758;28;1254;-87
2021/08/14 09:49:55;;;;;;;;;;;;;;;23.18;29.17;98544.47;5073925;28;1152;-87
2021/08/14 09:52:21;;;;;;;;;;;;;;;23.08;29.10;98546.31;5056455;28;1279;-87
2021/08/14 09:54:47;;;;;;;;;;;;;;;23.01;29.59;98551.38;5089486;28;1336;-87
2021/08/14 09:57:15;;;;;;;;;;;;;;;23.02;29.53;98555.81;5072344;28;1095;-86
2021/08/14 09:59:40;;;;;;;;;;;;;;;22.90;29.80;98556.47;5089905;28;1145;-87
2021/08/14 10:02:06;;;;;;;;;;;;;;;22.97;29.37;98559.16;5072804;28;1150;-86
2021/08/14 10:04:31;;;;;;;;;;;;;;;23.00;29.53;98552.59;5072789;28;1164;-87
2021/08/14 10:06:57;;;;;;;;;;;;;;;23.06;29.35;98559.34;5072986;28;1262;-87
2021/08/14 10:09:23;;;;;;;;;;;;;;;23.03;29.46;98540.38;5072977;28;1267;-87
2021/08/14 10:11:49;;;;;;;;;;;;;;;23.13;29.39;98539.31;5088928;28;602;-87
2021/08/14 10:14:14;;;;;;;;;;;;;;;23.38;28.88;98541.53;5092293;28;1840;-87
2021/08/14 10:16:40;;;;;;;;;;;;;;;23.26;29.25;98533.72;5075577;28;1248;-87
2021/08/14 10:19:05;;;;;;;;;;;;;;;23.27;28.94;98536.13;5092907;28;1894;-87
2021/08/14 10:21:31;;;;;;;;;;;;;;;23.27;28.97;98530.44;5058363;28;1105;-87
2021/08/14 10:24:00;;;;;;;;;;;;;;;23.14;29.09;98540.91;5075812;28;1200;-87
2021/08/14 10:26:27;;;;;;;;;;;;;;;23.10;29.10;98526.00;5058072;28;1215;-87
2021/08/14 10:28:53;;;;;;;;;;;;;;;23.09;29.48;98536.56;5059229;28;1176;-87
2021/08/14 10:31:30;;;;;;;;;;;;;;;23.20;29.15;98539.13;5058416;28;1113;-87
2021/08/14 10:33:56;;;;;;;;;;;;;;;22.95;29.35;98536.09;5091949;28;855;-87
2021/08/14 10:36:23;;;;;;;;;;;;;;;23.05;29.53;98535.03;5074716;28;1113;-87
2021/08/14 10:38:52;;;;;;;;;;;;;;;23.12;29.19;98518.66;5092011;28;1948;-87
2021/08/14 10:41:18;;;;;;;;;;;;;;;23.10;29.35;98508.97;5074478;28;1155;-86
2021/08/14 10:43:54;;;;;;;;;;;;;;;23.12;29.44;98512.16;5092308;28;916;-87
2021/08/14 10:46:36;;;;;;;;;;;;;;;23.23;29.15;98507.03;5074319;28;1151;-87
2021/08/14 10:49:02;;;;;;;;;;;;;;;23.28;29.11;98509.31;5059302;28;851;-87
2021/08/14 10:51:48;;;;;;;;;;;;;;;23.23;28.74;98518.38;5075121;28;599;-87
2021/08/14 10:54:29;;;;;;;;;;;;;;;23.32;28.94;98512.88;5064821;28;1236;-86
2021/08/14 10:57:04;;;;;;;;;;;;;;;23.11;29.15;98517.06;5091052;28;987;-87
2021/08/14 10:59:39;;;;;;;;;;;;;;;23.13;29.12;98519.44;5075369;28;1890;-87
2021/08/14 11:02:08;;;;;;;;;;;;;;;23.24;28.97;98505.78;5091362;28;1133;-86
2021/08/14 11:04:40;;;;;;;;;;;;;;;23.17;29.06;98508.81;5074237;28;1155;-86
2021/08/14 11:07:20;;;;;;;;;;;;;;;23.22;29.19;98516.00;5091398;28;1180;-87
2021/08/14 11:09:46;;;;;;;;;;;;;;;23.17;29.32;98503.13;5091928;28;804;-87
2021/08/14 11:12:11;;;;;;;;;;;;;;;23.25;29.17;98504.53;5074900;28;1127;-86
2021/08/14 11:14:44;;;;;;;;;;;;;;;23.12;29.39;98517.84;5090874;28;942;-87
2021/08/14 11:17:10;;;;;;;;;;;;;;;23.12;29.31;98500.81;5074079;28;976;-86
2021/08/14 11:19:41;;;;;;;;;;;;;;;23.24;29.25;98508.59;5074131;28;1882;-87
2021/08/14 11:22:26;;;;;;;;;;;;;;;23.36;28.79;98498.56;5090469;28;638;-86
2021/08/14 11:24:52;;;;;;;;;;;;;;;23.20;28.87;98502.22;5074177;28;1122;-87
2021/08/14 11:27:25;;;;;;;;;;;;;;;23.00;29.46;98493.00;5073713;28;817;-86
2021/08/14 11:29:55;;;;;;;;;;;;;;;23.24;29.03;98502.94;5074707;28;1255;-87
2021/08/14 11:32:20;;;;;;;;;;;;;;;23.20;29.13;98488.03;5090013;28;903;-86
2021/08/14 11:34:46;;;;;;;;;;;;;;;23.21;29.11;98520.88;5074939;28;1102;-86
2021/08/14 11:37:15;;;;;;;;;;;;;;;23.19;29.00;98511.97;5073825;28;1262;-87
2021/08/14 11:39:40;;;;;;;;;;;;;;;23.21;29.08;98503.84;5057048;28;1875;-86
2021/08/14 11:42:08;;;;;;;;;;;;;;;23.12;29.44;98506.50;5090468;28;1105;-86
2021/08/14 11:44:35;;;;;;;;;;;;;;;23.41;28.88;98495.19;5090686;28;918;-88
2021/08/14 11:47:05;;;;;;;;;;;;;;;23.36;28.84;98493.72;5089925;28;901;-87
2021/08/14 11:49:30;;;;;;;;;;;;;;;23.26;29.04;98476.94;5090993;28;1079;-87
2021/08/14 11:52:05;;;;;;;;;;;;;;;23.25;28.98;98476.13;5056512;28;1108;-86
2021/08/14 11:54:31;;;;;;;;;;;;;;;23.27;29.04;98490.69;5074575;28;1143;-87
2021/08/14 11:57:09;;;;;;;;;;;;;;;23.18;29.17;98476.31;5057025;28;1304;-87
2021/08/14 11:59:35;;;;;;;;;;;;;;;23.15;29.23;98477.19;5073427;28;1882;-86
2021/08/14 12:02:00;;;;;;;;;;;;;;;23.08;29.38;98480.22;5089875;28;951;-86
2021/08/14 12:04:26;;;;;;;;;;;;;;;23.36;28.92;98473.84;5073682;28;1179;-86
2021/08/14 12:06:55;;;;;;;;;;;;;;;23.37;28.94;98477.47;5089944;28;683;-86
2021/08/14 12:09:22;;;;;;;;;;;;;;;23.32;28.97;98475.16;5090352;28;910;-86
2021/08/14 12:11:51;;;;;;;;;;;;;;;23.16;29.42;98478.81;5056671;28;1161;-86
2021/08/14 12:14:18;;;;;;;;;;;;;;;23.17;29.35;98480.41;5089987;28;961;-85
2021/08/14 12:16:44;;;;;;;;;;;;;;;23.13;29.42;98471.19;5056482;28;1174;-86
2021/08/14 12:19:13;;;;;;;;;;;;;;;23.16;29.13;98473.16;5073145;28;1902;-86
2021/08/14 12:21:39;;;;;;;;;;;;;;;23.17;29.40;98469.06;5089049;28;1156;-86
2021/08/14 12:24:05;;;;;;;;;;;;;;;23.37;28.78;98466.91;5089761;28;710;-86
2021/08/14 12:26:30;;;;;;;;;;;;;;;23.19;29.26;98466.56;5072903;28;1165;-86
2021/08/14 12:29:02;;;;;;;;;;;;;;;23.23;29.26;98466.47;5056627;28;1143;-86
2021/08/14 12:31:28;;;;;;;;;;;;;;;23.10;29.30;98466.38;5088217;28;916;-87
2021/08/14 12:33:57;;;;;;;;;;;;;;;23.15;29.17;98465.84;5072863;28;1140;-86
2021/08/14 12:36:36;;;;;;;;;;;;;;;23.15;29.04;98465.84;5056062;28;1151;-87
2021/08/14 12:39:02;;;;;;;;;;;;;;;23.21;29.16;98458.41;5072965;28;1955;-87
2021/08/14 12:41:33;;;;;;;;;;;;;;;23.17;29.09;98456.91;5072865;28;1164;-86
2021/08/14 12:43:58;;;;;;;;;;;;;;;23.18;29.00;98447.94;5089630;28;983;-86
2021/08/14 12:46:24;;;;;;;;;;;;;;;23.10;28.96;98457.88;5072386;28;1120;-87
2021/08/14 12:49:08;;;;;;;;;;;;;;;23.13;28.90;98439.97;5072915;28;1270;-86
2021/08/14 12:51:34;;;;;;;;;;;;;;;23.14;28.85;98445.19;5089393;28;1270;-87
2021/08/14 12:54:11;;;;;;;;;;;;;;;23.21;28.94;98458.41;5073732;28;1275;-87
2021/08/14 14:33:57;;;;;;;;;;;;;;;22.98;28.37;98430.22;5090455;28;1593;-87
2021/08/14 14:36:22;;;;;;;;;;;;;;;23.06;28.02;98412.56;5058531;28;1166;-87
2021/08/14 14:38:48;;;;;;;;;;;;;;;23.08;27.93;98426.31;5059139;28;1902;-87